createdAt,value
2023-02-01T00:02:15.512Z,1.17
2023-02-01T00:04:42.368Z,1.30
2023-02-01T00:07:09.315Z,1.33
2023-02-01T00:09:36.290Z,1.40
2023-02-01T00:12:04.607Z,1.43
2023-02-01T00:14:31.361Z,1.20
2023-02-01T00:16:58.074Z,1.42
2023-02-01T00:19:24.996Z,1.30
2023-02-01T00:21:51.699Z,1.50
2023-02-01T00:24:18.448Z,1.40
2023-02-01T00:26:47.027Z,1.80
2023-02-01T00:29:17.390Z,1.50
2023-02-01T00:31:45.259Z,1.58
2023-02-01T00:34:16.493Z,1.45
2023-02-01T00:36:44.335Z,1.35
2023-02-01T00:39:11.952Z,1.30
2023-02-01T00:41:38.809Z,1.27
2023-02-01T00:44:05.741Z,1.30
2023-02-01T00:46:32.825Z,1.33
2023-02-01T00:48:59.729Z,1.23
2023-02-01T00:51:29.503Z,1.20
2023-02-01T00:53:56.635Z,1.65
2023-02-01T00:56:23.398Z,1.77
2023-02-01T00:58:50.737Z,1.52
2023-02-01T01:01:23.958Z,1.42
2023-02-01T01:03:53.501Z,1.15
2023-02-01T01:06:23.536Z,1.30
2023-02-01T01:08:53.277Z,1.30
2023-02-01T01:11:25.012Z,1.60
2023-02-01T01:13:53.480Z,1.40
2023-02-01T01:16:22.019Z,1.23
2023-02-01T01:18:49.549Z,1.50
2023-02-01T01:21:17.432Z,1.30
2023-02-01T01:23:45.656Z,1.50
2023-02-01T01:26:21.780Z,1.60
2023-02-01T01:28:49.203Z,1.27
2023-02-01T01:31:18.312Z,1.45
2023-02-01T01:33:47.976Z,1.40
2023-02-01T01:36:15.892Z,1.58
2023-02-01T01:38:43.066Z,1.33
2023-02-01T01:41:16.563Z,1.60
2023-02-01T01:43:52.754Z,1.50
2023-02-01T01:46:25.585Z,1.33
2023-02-01T01:49:00.403Z,1.35
2023-02-01T01:51:29.293Z,1.60
2023-02-01T01:54:22.378Z,1.25
2023-02-01T01:56:54.516Z,1.73
2023-02-01T01:59:24.015Z,1.27
2023-02-01T02:01:51.580Z,1.38
2023-02-01T02:04:18.708Z,1.50
2023-02-01T02:06:58.328Z,1.50
2023-02-01T02:09:25.266Z,1.30
2023-02-01T02:11:51.977Z,1.60
2023-02-01T02:14:22.893Z,1.40
2023-02-01T02:16:50.173Z,1.73
2023-02-01T02:20:06.620Z,1.40
2023-02-01T02:23:11.253Z,1.67
2023-02-01T02:26:14.693Z,1.25
2023-02-01T02:29:05.524Z,1.50
2023-02-01T02:32:04.192Z,1.67
2023-02-01T02:34:58.895Z,1.27
2023-02-01T02:37:47.804Z,1.73
2023-02-01T02:40:23.085Z,1.45
2023-02-01T02:43:20.693Z,1.35
2023-02-01T02:46:13.005Z,1.40
2023-02-01T02:48:53.047Z,1.48
2023-02-01T02:51:51.958Z,1.45
2023-02-01T02:54:44.992Z,1.67
2023-02-01T02:57:41.811Z,1.40
2023-02-01T03:00:34.457Z,1.55
2023-02-01T03:03:20.358Z,1.70
2023-02-01T03:05:51.453Z,1.40
2023-02-01T03:08:22.293Z,1.50
2023-02-01T03:11:10.864Z,1.50
2023-02-01T03:13:43.460Z,1.75
2023-02-01T03:16:27.867Z,1.30
2023-02-01T03:19:08.209Z,1.30
2023-02-01T03:21:42.596Z,1.60
2023-02-01T03:24:18.230Z,1.80
2023-02-01T03:26:55.499Z,1.40
2023-02-01T03:29:26.528Z,1.30
2023-02-01T03:31:54.215Z,1.45
2023-02-01T03:34:20.998Z,1.52
2023-02-01T03:36:53.000Z,1.43
2023-02-01T03:39:49.364Z,1.60
2023-02-01T03:42:22.259Z,1.63
2023-02-01T03:44:55.524Z,1.40
2023-02-01T03:47:29.560Z,1.60
2023-02-01T03:50:05.289Z,1.60
2023-02-01T03:52:46.006Z,1.63
2023-02-01T03:55:18.464Z,1.70
2023-02-01T03:57:54.949Z,1.33
2023-02-01T04:00:27.127Z,1.65
2023-02-01T04:02:56.438Z,1.45
2023-02-01T04:05:24.203Z,1.10
2023-02-01T04:08:17.842Z,1.42
2023-02-01T04:10:45.732Z,1.50
2023-02-01T04:13:12.500Z,1.30
2023-02-01T04:15:40.392Z,1.40
2023-02-01T04:18:07.215Z,1.43
2023-02-01T04:20:33.949Z,1.38
2023-02-01T04:23:03.342Z,1.42
2023-02-01T04:25:30.880Z,1.38
2023-02-01T04:27:57.648Z,1.38
2023-02-01T04:30:25.068Z,1.33
2023-02-01T04:32:52.162Z,1.60
2023-02-01T04:35:19.008Z,1.50
2023-02-01T04:37:45.778Z,1.45
2023-02-01T04:40:12.959Z,1.60
2023-02-01T04:42:39.729Z,1.27
2023-02-01T04:45:07.272Z,1.60
2023-02-01T04:47:34.134Z,1.60
2023-02-01T04:50:01.984Z,1.33
2023-02-01T04:52:28.987Z,1.30
2023-02-01T04:54:59.273Z,1.40
2023-02-01T04:57:26.452Z,1.40
2023-02-01T04:59:53.166Z,1.45
2023-02-01T05:02:20.003Z,1.42
2023-02-01T05:04:46.821Z,1.50
2023-02-01T05:07:13.552Z,1.30
2023-02-01T05:09:40.224Z,1.50
2023-02-01T05:12:25.583Z,1.23
2023-02-01T05:14:52.398Z,1.45
2023-02-01T05:17:20.162Z,1.90
2023-02-01T05:19:46.948Z,1.50
2023-02-01T05:22:13.712Z,1.23
2023-02-01T05:24:40.447Z,1.75
2023-02-01T05:27:07.152Z,1.73
2023-02-01T05:29:33.920Z,1.33
2023-02-01T05:32:08.374Z,1.70
2023-02-01T05:34:38.667Z,1.58
2023-02-01T05:37:05.440Z,1.70
2023-02-01T05:39:33.219Z,1.45
2023-02-01T05:41:59.939Z,1.40
2023-02-01T05:44:26.726Z,1.00
2023-02-01T05:46:54.560Z,1.50
2023-02-01T05:49:22.498Z,1.60
2023-02-01T05:51:50.254Z,1.90
2023-02-01T05:54:17.064Z,1.83
2023-02-01T05:56:43.843Z,1.42
2023-02-01T05:59:11.509Z,1.37
2023-02-01T06:01:39.228Z,1.40
2023-02-01T06:04:06.124Z,1.45
2023-02-01T06:06:32.951Z,1.60
2023-02-01T06:09:00.985Z,1.25
2023-02-01T06:11:33.031Z,1.45
2023-02-01T06:14:02.553Z,1.50
2023-02-01T06:16:29.479Z,1.60
2023-02-01T06:18:56.269Z,1.33
2023-02-01T06:21:25.766Z,1.30
2023-02-01T06:23:53.559Z,1.83
2023-02-01T06:26:20.932Z,1.52
2023-02-01T06:28:47.699Z,1.40
2023-02-01T06:31:14.483Z,1.48
2023-02-01T06:33:41.685Z,1.40
2023-02-01T06:36:13.174Z,1.40
2023-02-01T06:38:40.193Z,1.23
2023-02-01T06:41:07.415Z,1.42
2023-02-01T06:43:34.330Z,1.70
2023-02-01T06:46:07.077Z,1.70
2023-02-01T06:48:34.093Z,1.30
2023-02-01T06:51:01.191Z,1.50
2023-02-01T06:53:28.316Z,1.40
2023-02-01T06:55:57.360Z,1.60
2023-02-01T06:58:24.360Z,1.60
2023-02-01T07:00:51.496Z,1.60
2023-02-01T07:03:19.243Z,1.50
2023-02-01T07:05:45.912Z,1.40
2023-02-01T07:08:12.979Z,1.42
2023-02-01T07:10:39.768Z,1.45
2023-02-01T07:13:06.491Z,1.50
2023-02-01T07:15:33.252Z,1.38
2023-02-01T07:18:00.045Z,1.50
2023-02-01T07:20:26.890Z,2.05
2023-02-01T07:22:57.840Z,1.40
2023-02-01T07:25:25.453Z,1.38
2023-02-01T07:27:53.280Z,1.33
2023-02-01T07:30:20.093Z,1.60
2023-02-01T07:32:46.946Z,1.50
2023-02-01T07:35:15.039Z,1.70
2023-02-01T07:37:41.809Z,1.60
2023-02-01T07:40:10.002Z,1.60
2023-02-01T07:42:36.708Z,1.40
2023-02-01T07:45:20.039Z,1.63
2023-02-01T07:47:52.512Z,1.67
2023-02-01T07:50:19.364Z,1.52
2023-02-01T07:52:49.289Z,1.50
2023-02-01T07:55:18.008Z,1.83
2023-02-01T07:57:44.721Z,1.80
2023-02-01T08:00:31.298Z,2.00
2023-02-01T08:03:01.728Z,2.00
2023-02-01T08:05:28.554Z,2.05
2023-02-01T08:07:55.265Z,2.00
2023-02-01T08:10:22.521Z,1.67
2023-02-01T08:12:49.795Z,1.60
2023-02-01T08:15:16.734Z,2.23
2023-02-01T08:17:51.137Z,1.80
2023-02-01T08:20:19.435Z,1.70
2023-02-01T08:22:46.308Z,1.88
2023-02-01T08:25:13.762Z,2.00
2023-02-01T08:27:43.039Z,1.67
2023-02-01T08:30:10.875Z,1.80
2023-02-01T08:32:37.697Z,1.60
2023-02-01T08:35:05.398Z,1.73
2023-02-01T08:37:32.787Z,1.90
2023-02-01T08:39:59.569Z,1.83
2023-02-01T08:42:44.919Z,1.80
2023-02-01T08:45:11.873Z,1.33
2023-02-01T08:47:41.043Z,1.75
2023-02-01T08:50:08.546Z,1.80
2023-02-01T08:52:37.867Z,1.70
2023-02-01T08:55:05.585Z,1.60
2023-02-01T08:57:33.755Z,1.83
2023-02-01T09:00:01.155Z,1.67
2023-02-01T09:02:28.042Z,1.63
2023-02-01T09:04:56.405Z,1.88
2023-02-01T09:07:23.281Z,1.73
2023-02-01T09:09:50.311Z,1.80
2023-02-01T09:12:17.252Z,2.13
2023-02-01T09:14:44.254Z,1.60
2023-02-01T09:17:14.416Z,2.10
2023-02-01T09:19:42.958Z,2.03
2023-02-01T09:22:09.904Z,1.80
2023-02-01T09:24:36.660Z,1.88
2023-02-01T09:27:03.598Z,1.90
2023-02-01T09:29:32.725Z,1.93
2023-02-01T09:32:04.035Z,1.70
2023-02-01T09:34:31.677Z,1.87
2023-02-01T09:36:58.388Z,2.17
2023-02-01T09:39:25.185Z,2.10
2023-02-01T09:42:28.628Z,1.65
2023-02-01T09:45:11.924Z,1.70
2023-02-01T09:47:49.879Z,2.22
2023-02-01T09:50:31.450Z,1.92
2023-02-01T09:53:26.465Z,1.90
2023-02-01T09:56:00.119Z,1.70
2023-02-01T09:58:53.854Z,1.60
2023-02-01T10:01:26.848Z,2.17
2023-02-01T10:04:15.248Z,1.77
2023-02-01T10:07:03.897Z,1.98
2023-02-01T10:09:51.777Z,1.75
2023-02-01T10:12:44.327Z,1.85
2023-02-01T10:15:31.552Z,1.87
2023-02-01T10:18:00.364Z,1.92
2023-02-01T10:20:48.440Z,1.70
2023-02-01T10:23:32.991Z,1.95
2023-02-01T10:26:09.408Z,2.00
2023-02-01T10:28:38.880Z,2.30
2023-02-01T10:31:10.698Z,2.00
2023-02-01T10:33:48.116Z,1.77
2023-02-01T10:36:23.983Z,1.70
2023-02-01T10:38:51.065Z,1.75
2023-02-01T10:41:26.065Z,1.70
2023-02-01T10:43:57.476Z,1.60
2023-02-01T10:46:25.141Z,1.83
2023-02-01T10:48:54.225Z,1.90
2023-02-01T10:51:36.890Z,2.15
2023-02-01T10:54:21.367Z,1.55
2023-02-01T10:56:50.526Z,1.67
2023-02-01T10:59:20.034Z,1.75
2023-02-01T11:01:50.825Z,1.73
2023-02-01T11:04:21.571Z,1.60
2023-02-01T11:07:26.875Z,1.60
2023-02-01T11:09:57.131Z,1.50
2023-02-01T11:12:31.479Z,1.80
2023-02-01T11:15:03.416Z,1.80
2023-02-01T11:17:40.627Z,1.73
2023-02-01T11:20:18.475Z,1.80
2023-02-01T11:22:56.954Z,1.60
2023-02-01T11:25:25.158Z,1.48
2023-02-01T11:27:56.050Z,1.60
2023-02-01T11:30:41.953Z,1.73
2023-02-01T11:33:16.117Z,1.48
2023-02-01T11:35:44.294Z,1.50
2023-02-01T11:38:31.849Z,1.67
2023-02-01T11:41:14.259Z,1.60
2023-02-01T11:44:01.734Z,1.40
2023-02-01T11:46:31.959Z,1.50
2023-02-01T11:49:20.197Z,1.48
2023-02-01T11:52:06.870Z,1.60
2023-02-01T11:54:42.092Z,1.33
2023-02-01T11:57:25.822Z,1.65
2023-02-01T12:00:01.477Z,1.50
2023-02-01T12:02:31.091Z,1.50
2023-02-01T12:05:12.428Z,1.20
2023-02-01T12:08:12.043Z,1.40
2023-02-01T12:10:59.138Z,1.55
2023-02-01T12:13:55.820Z,1.70
2023-02-01T12:16:54.932Z,1.40
2023-02-01T12:19:27.824Z,1.85
2023-02-01T12:22:29.490Z,2.00
2023-02-01T12:25:33.838Z,2.80
2023-02-01T12:28:41.744Z,2.70
2023-02-01T12:31:20.038Z,3.00
2023-02-01T12:34:15.391Z,3.13
2023-02-01T12:37:17.606Z,3.15
2023-02-01T12:40:19.975Z,3.22
2023-02-01T12:43:22.574Z,3.07
2023-02-01T12:46:08.603Z,3.50
2023-02-01T12:48:42.960Z,3.45
2023-02-01T12:51:34.706Z,3.70
2023-02-01T12:54:12.289Z,3.47
2023-02-01T12:57:09.923Z,3.40
2023-02-01T12:59:42.745Z,3.33
2023-02-01T13:02:16.198Z,3.47
2023-02-01T13:05:02.643Z,3.35
2023-02-01T13:07:40.539Z,2.80
2023-02-01T13:10:44.585Z,3.17
2023-02-01T13:13:27.792Z,3.10
2023-02-01T13:16:06.878Z,3.15
2023-02-01T13:18:39.225Z,3.20
2023-02-01T13:21:18.228Z,3.25
2023-02-01T13:23:48.849Z,3.22
2023-02-01T13:26:15.749Z,2.90
2023-02-01T13:29:03.599Z,2.95
2023-02-01T13:31:56.345Z,3.13
2023-02-01T13:34:44.732Z,2.83
2023-02-01T13:37:48.933Z,2.60
2023-02-01T13:40:34.719Z,2.92
2023-02-01T13:43:29.647Z,2.80
2023-02-01T13:46:06.201Z,2.45
2023-02-01T13:48:47.836Z,3.05
2023-02-01T13:51:15.710Z,2.72
2023-02-01T13:53:48.743Z,2.97
2023-02-01T13:56:20.966Z,3.00
2023-02-01T13:58:49.345Z,2.45
2023-02-01T14:01:24.675Z,2.40
2023-02-01T14:04:00.225Z,2.35
2023-02-01T14:06:27.346Z,2.95
2023-02-01T14:09:09.165Z,2.83
2023-02-01T14:11:38.700Z,2.28
2023-02-01T14:14:17.648Z,2.58
2023-02-01T14:16:55.727Z,2.53
2023-02-01T14:19:25.805Z,2.50
2023-02-01T14:22:02.335Z,2.55
2023-02-01T14:24:35.163Z,2.30
2023-02-01T14:27:17.464Z,2.30
2023-02-01T14:29:59.201Z,2.53
2023-02-01T14:32:32.384Z,2.10
2023-02-01T14:35:01.870Z,2.38
2023-02-01T14:37:36.088Z,2.10
2023-02-01T14:40:06.407Z,2.47
2023-02-01T14:42:43.620Z,2.57
2023-02-01T14:45:23.166Z,2.30
2023-02-01T14:47:53.045Z,2.25
2023-02-01T14:50:23.404Z,2.42
2023-02-01T14:53:17.872Z,2.00
2023-02-01T14:56:05.416Z,2.03
2023-02-01T14:58:49.951Z,2.10
2023-02-01T15:01:36.305Z,1.80
2023-02-01T15:04:19.380Z,2.17
2023-02-01T15:06:58.184Z,2.05
2023-02-01T15:09:35.358Z,1.88
2023-02-01T15:12:18.265Z,2.10
2023-02-01T15:15:05.124Z,2.00
2023-02-01T15:17:34.798Z,2.23
2023-02-01T15:20:28.692Z,2.05
2023-02-01T15:23:08.802Z,1.95
2023-02-01T15:25:39.457Z,1.80
2023-02-01T15:28:13.364Z,2.00
2023-02-01T15:30:40.313Z,1.92
2023-02-01T15:33:20.094Z,2.00
2023-02-01T15:35:51.715Z,2.30
2023-02-01T15:38:28.143Z,1.88
2023-02-01T15:41:19.364Z,2.30
2023-02-01T15:43:55.404Z,1.83
2023-02-01T15:46:39.872Z,2.05
2023-02-01T15:49:26.568Z,2.00
2023-02-01T15:51:55.147Z,1.85
2023-02-01T15:54:45.307Z,1.70
2023-02-01T15:57:23.287Z,1.80
2023-02-01T15:59:56.107Z,1.60
2023-02-01T16:02:39.865Z,2.10
2023-02-01T16:05:38.160Z,1.77
2023-02-01T16:08:15.946Z,1.73
2023-02-01T16:10:46.369Z,2.03
2023-02-01T16:13:14.367Z,2.07
2023-02-01T16:15:41.285Z,2.08
2023-02-01T16:18:09.120Z,2.00
2023-02-01T16:20:39.940Z,2.00
2023-02-01T16:23:08.154Z,2.10
2023-02-01T16:25:35.812Z,2.28
2023-02-01T16:28:02.847Z,1.80
2023-02-01T16:30:29.515Z,1.92
2023-02-01T16:33:00.307Z,2.00
2023-02-01T16:35:36.344Z,1.67
2023-02-01T16:38:14.328Z,1.67
2023-02-01T16:40:42.822Z,1.73
2023-02-01T16:43:21.086Z,1.83
2023-02-01T16:45:49.935Z,1.52
2023-02-01T16:48:28.177Z,1.98
2023-02-01T16:51:03.783Z,2.00
2023-02-01T16:53:36.584Z,1.98
2023-02-01T16:56:29.570Z,1.88
2023-02-01T16:58:57.241Z,2.05
2023-02-01T17:01:24.930Z,1.87
2023-02-01T17:03:51.804Z,2.00
2023-02-01T17:06:22.611Z,1.92
2023-02-01T17:08:53.546Z,1.83
2023-02-01T17:11:20.620Z,2.00
2023-02-01T17:13:49.520Z,1.77
2023-02-01T17:16:16.307Z,1.80
2023-02-01T17:18:43.077Z,1.70
2023-02-01T17:21:11.173Z,1.73
2023-02-01T17:23:38.479Z,2.20
2023-02-01T17:26:05.404Z,1.85
2023-02-01T17:28:32.159Z,2.05
2023-02-01T17:30:58.863Z,1.83
2023-02-01T17:33:36.257Z,1.90
2023-02-01T17:36:05.734Z,1.80
2023-02-01T17:38:34.505Z,1.90
2023-02-01T17:41:01.471Z,2.00
2023-02-01T17:43:28.368Z,1.70
2023-02-01T17:46:15.963Z,1.80
2023-02-01T17:48:43.172Z,1.70
2023-02-01T17:51:21.237Z,1.85
2023-02-01T17:53:48.083Z,1.73
2023-02-01T17:56:21.875Z,1.70
2023-02-01T17:58:49.007Z,1.88
2023-02-01T18:01:22.262Z,2.00
2023-02-01T18:03:49.399Z,1.80
2023-02-01T18:06:22.235Z,2.00
2023-02-01T18:08:49.197Z,1.87
2023-02-01T18:11:18.687Z,1.90
2023-02-01T18:13:45.975Z,2.08
2023-02-01T18:16:24.271Z,1.85
2023-02-01T18:18:51.593Z,1.92
2023-02-01T18:21:21.169Z,1.80
2023-02-01T18:23:50.179Z,1.95
2023-02-01T18:26:18.536Z,1.60
2023-02-01T18:28:45.564Z,1.73
2023-02-01T18:31:29.723Z,1.83
2023-02-01T18:33:58.123Z,2.08
2023-02-01T18:36:26.074Z,1.73
2023-02-01T18:38:57.576Z,1.95
2023-02-01T18:41:25.972Z,1.85
2023-02-01T18:43:53.061Z,1.80
2023-02-01T18:46:21.686Z,1.80
2023-02-01T18:48:48.943Z,1.83
2023-02-01T18:51:20.160Z,2.20
2023-02-01T18:53:50.369Z,1.95
2023-02-01T18:56:19.557Z,1.92
2023-02-01T18:58:46.579Z,2.03
2023-02-01T19:01:16.534Z,1.70
2023-02-01T19:03:45.348Z,1.95
2023-02-01T19:06:21.005Z,1.83
2023-02-01T19:08:48.626Z,1.65
2023-02-01T19:11:15.463Z,2.00
2023-02-01T19:13:42.205Z,2.30
2023-02-01T19:16:13.433Z,1.83
2023-02-01T19:18:40.293Z,1.90
2023-02-01T19:21:10.297Z,1.60
2023-02-01T19:23:39.741Z,2.00
2023-02-01T19:26:19.538Z,1.70
2023-02-01T19:28:48.971Z,2.20
2023-02-01T19:31:17.284Z,1.73
2023-02-01T19:33:44.427Z,1.90
2023-02-01T19:36:11.287Z,1.95
2023-02-01T19:38:38.570Z,1.98
2023-02-01T19:41:05.713Z,2.20
2023-02-01T19:43:32.682Z,1.80
2023-02-01T19:46:02.992Z,1.88
2023-02-01T19:48:31.601Z,1.88
2023-02-01T19:50:59.031Z,1.90
2023-02-01T19:53:27.608Z,1.77
2023-02-01T19:55:58.162Z,1.90
2023-02-01T19:58:28.048Z,2.00
2023-02-01T20:00:55.969Z,2.00
2023-02-01T20:03:23.787Z,2.25
2023-02-01T20:05:52.222Z,1.90
2023-02-01T20:08:19.601Z,1.95
2023-02-01T20:10:46.491Z,1.90
2023-02-01T20:13:13.360Z,1.80
2023-02-01T20:15:41.984Z,1.70
2023-02-01T20:18:09.772Z,1.83
2023-02-01T20:20:37.017Z,1.95
2023-02-01T20:23:03.712Z,2.10
2023-02-01T20:25:31.368Z,2.27
2023-02-01T20:27:58.077Z,1.73
2023-02-01T20:30:25.041Z,2.30
2023-02-01T20:32:52.171Z,2.13
2023-02-01T20:35:19.508Z,1.80
2023-02-01T20:37:49.215Z,1.75
2023-02-01T20:40:18.278Z,1.95
2023-02-01T20:42:45.048Z,2.00
2023-02-01T20:45:11.880Z,2.10
2023-02-01T20:47:38.643Z,1.80
2023-02-01T20:50:09.420Z,1.80
2023-02-01T20:52:36.386Z,1.70
2023-02-01T20:55:03.295Z,1.90
2023-02-01T20:57:29.990Z,1.70
2023-02-01T20:59:57.955Z,1.80
2023-02-01T21:02:24.784Z,1.83
2023-02-01T21:04:51.451Z,1.98
2023-02-01T21:07:20.745Z,1.90
2023-02-01T21:09:47.516Z,1.70
2023-02-01T21:12:14.303Z,1.80
2023-02-01T21:14:41.237Z,1.88
2023-02-01T21:17:08.058Z,1.58
2023-02-01T21:19:43.497Z,1.80
2023-02-01T21:22:14.337Z,1.92
2023-02-01T21:24:41.869Z,1.38
2023-02-01T21:27:09.830Z,1.50
2023-02-01T21:29:37.018Z,1.73
2023-02-01T21:32:04.355Z,1.88
2023-02-01T21:34:40.223Z,1.55
2023-02-01T21:37:07.000Z,1.60
2023-02-01T21:39:33.741Z,1.92
2023-02-01T21:42:17.519Z,1.60
2023-02-01T21:44:48.397Z,1.95
2023-02-01T21:47:17.324Z,1.80
2023-02-01T21:49:48.619Z,1.53
2023-02-01T21:52:16.610Z,1.90
2023-02-01T21:54:43.329Z,1.48
2023-02-01T21:57:12.625Z,1.80
2023-02-01T21:59:40.839Z,1.52
2023-02-01T22:02:13.077Z,1.60
2023-02-01T22:04:39.878Z,1.80
2023-02-01T22:07:07.376Z,1.70
2023-02-01T22:09:36.835Z,1.60
2023-02-01T22:12:04.099Z,1.60
2023-02-01T22:14:33.250Z,1.80
2023-02-01T22:17:00.611Z,1.60
2023-02-01T22:19:27.307Z,1.50
2023-02-01T22:21:54.071Z,1.60
2023-02-01T22:24:21.380Z,1.67
2023-02-01T22:26:49.720Z,1.63
2023-02-01T22:29:19.128Z,1.70
2023-02-01T22:31:46.299Z,1.50
2023-02-01T22:34:13.307Z,1.75
2023-02-01T22:36:40.216Z,1.55
2023-02-01T22:39:07.521Z,1.70
2023-02-01T22:41:34.494Z,1.30
2023-02-01T22:44:03.394Z,1.98
2023-02-01T22:46:33.546Z,1.42
2023-02-01T22:49:00.716Z,1.60
2023-02-01T22:51:30.065Z,1.73
2023-02-01T22:53:57.867Z,1.35
2023-02-01T22:56:30.610Z,1.70
2023-02-01T22:59:03.996Z,1.30
2023-02-01T23:01:31.127Z,1.60
2023-02-01T23:03:59.228Z,1.55
2023-02-01T23:06:26.981Z,1.67
2023-02-01T23:08:57.919Z,1.58
2023-02-01T23:11:25.716Z,1.70
2023-02-01T23:13:53.019Z,1.60
2023-02-01T23:16:20.284Z,1.60
2023-02-01T23:18:47.394Z,1.70
2023-02-01T23:21:19.350Z,1.75
2023-02-01T23:23:54.059Z,1.70
2023-02-01T23:26:22.817Z,1.25
2023-02-01T23:28:54.060Z,1.80
2023-02-01T23:31:22.590Z,1.70
2023-02-01T23:33:49.679Z,1.50
2023-02-01T23:36:17.461Z,1.20
2023-02-01T23:38:45.084Z,1.57
2023-02-01T23:41:14.239Z,1.50
2023-02-01T23:43:59.473Z,1.53
2023-02-01T23:46:32.901Z,1.40
2023-02-01T23:49:01.091Z,1.50
2023-02-01T23:51:28.583Z,1.60
2023-02-01T23:53:56.374Z,1.50
2023-02-01T23:56:38.127Z,1.40
2023-02-01T23:59:07.591Z,1.40
